sensor_id;sensor_type;location;lat;lon;timestamp;noise_LAeq;noise_LA_min;noise_LA_max;noise_LA01;noise_LA95
82857;Laerm;72620;47.774;9.620;2024-01-07T00:02:07;60.04;50.70;69.31;;
82857;Laerm;72620;47.774;9.620;2024-01-07T00:04:34;60.07;52.41;68.90;;
82857;Laerm;72620;47.774;9.620;2024-01-07T00:07:01;62.38;51.99;76.84;;
82857;Laerm;72620;47.774;9.620;2024-01-07T00:09:28;59.11;51.75;70.43;;
82857;Laerm;72620;47.774;9.620;2024-01-07T00:11:55;60.07;52.08;68.98;;
82857;Laerm;72620;47.774;9.620;2024-01-07T00:14:22;60.29;50.97;70.13;;
82857;Laerm;72620;47.774;9.620;2024-01-07T00:16:49;60.12;50.78;69.84;;
82857;Laerm;72620;47.774;9.620;2024-01-07T00:19:17;56.78;50.57;67.50;;
82857;Laerm;72620;47.774;9.620;2024-01-07T00:21:44;62.58;50.91;70.10;;
82857;Laerm;72620;47.774;9.620;2024-01-07T00:24:11;57.73;50.69;68.12;;
82857;Laerm;72620;47.774;9.620;2024-01-07T00:26:39;60.29;50.84;70.91;;
82857;Laerm;72620;47.774;9.620;2024-01-07T00:29:06;57.15;50.99;68.38;;
82857;Laerm;72620;47.774;9.620;2024-01-07T00:31:33;59.27;51.22;70.62;;
82857;Laerm;72620;47.774;9.620;2024-01-07T00:34:00;60.00;51.26;71.17;;
82857;Laerm;72620;47.774;9.620;2024-01-07T00:36:27;62.24;51.47;70.24;;
82857;Laerm;72620;47.774;9.620;2024-01-07T00:38:54;55.31;50.92;67.95;;
82857;Laerm;72620;47.774;9.620;2024-01-07T00:41:22;53.39;50.97;66.24;;
82857;Laerm;72620;47.774;9.620;2024-01-07T00:43:49;59.64;51.26;70.21;;
82857;Laerm;72620;47.774;9.620;2024-01-07T00:46:16;58.73;52.23;68.83;;
82857;Laerm;72620;47.774;9.620;2024-01-07T00:48:43;60.55;50.46;69.35;;
82857;Laerm;72620;47.774;9.620;2024-01-07T00:51:10;55.29;50.18;69.05;;
82857;Laerm;72620;47.774;9.620;2024-01-07T00:53:37;51.89;50.30;54.39;;
82857;Laerm;72620;47.774;9.620;2024-01-07T00:56:05;61.50;51.32;72.10;;
82857;Laerm;72620;47.774;9.620;2024-01-07T00:58:33;60.20;50.60;72.50;;
82857;Laerm;72620;47.774;9.620;2024-01-07T01:01:00;59.91;51.06;70.83;;
82857;Laerm;72620;47.774;9.620;2024-01-07T01:03:29;58.85;50.72;70.80;;
82857;Laerm;72620;47.774;9.620;2024-01-07T01:05:56;55.55;50.79;68.36;;
82857;Laerm;72620;47.774;9.620;2024-01-07T01:08:23;59.74;50.74;70.11;;
82857;Laerm;72620;47.774;9.620;2024-01-07T01:10:50;59.61;50.60;70.60;;
82857;Laerm;72620;47.774;9.620;2024-01-07T01:13:17;58.64;50.56;70.82;;
82857;Laerm;72620;47.774;9.620;2024-01-07T01:15:44;57.33;50.94;67.63;;
82857;Laerm;72620;47.774;9.620;2024-01-07T01:18:11;59.92;50.95;70.87;;
82857;Laerm;72620;47.774;9.620;2024-01-07T01:20:39;54.23;51.01;66.44;;
82857;Laerm;72620;47.774;9.620;2024-01-07T01:23:06;58.65;51.04;69.62;;
82857;Laerm;72620;47.774;9.620;2024-01-07T01:25:33;59.04;50.87;71.00;;
82857;Laerm;72620;47.774;9.620;2024-01-07T01:28:02;57.89;50.83;67.37;;
82857;Laerm;72620;47.774;9.620;2024-01-07T01:30:30;60.26;50.92;71.53;;
82857;Laerm;72620;47.774;9.620;2024-01-07T01:32:59;58.23;51.25;70.56;;
82857;Laerm;72620;47.774;9.620;2024-01-07T01:35:26;55.41;51.40;67.44;;
82857;Laerm;72620;47.774;9.620;2024-01-07T01:37:53;61.03;51.16;69.99;;
82857;Laerm;72620;47.774;9.620;2024-01-07T01:40:23;56.97;50.31;71.68;;
82857;Laerm;72620;47.774;9.620;2024-01-07T01:42:50;56.26;50.47;66.17;;
82857;Laerm;72620;47.774;9.620;2024-01-07T01:45:17;58.10;50.62;71.32;;
82857;Laerm;72620;47.774;9.620;2024-01-07T01:47:47;55.35;50.61;67.56;;
82857;Laerm;72620;47.774;9.620;2024-01-07T01:50:15;57.29;50.62;69.89;;
82857;Laerm;72620;47.774;9.620;2024-01-07T01:52:46;57.56;50.78;66.33;;
82857;Laerm;72620;47.774;9.620;2024-01-07T01:55:14;56.02;50.85;69.25;;
82857;Laerm;72620;47.774;9.620;2024-01-07T01:57:43;59.67;51.01;70.20;;
82857;Laerm;72620;47.774;9.620;2024-01-07T02:00:11;58.23;50.82;70.29;;
82857;Laerm;72620;47.774;9.620;2024-01-07T02:02:38;60.81;50.80;71.78;;
82857;Laerm;72620;47.774;9.620;2024-01-07T02:05:06;57.01;50.85;68.72;;
82857;Laerm;72620;47.774;9.620;2024-01-07T02:07:33;60.15;50.88;69.96;;
82857;Laerm;72620;47.774;9.620;2024-01-07T02:10:00;53.83;51.00;66.69;;
82857;Laerm;72620;47.774;9.620;2024-01-07T02:12:28;54.58;50.75;67.78;;
82857;Laerm;72620;47.774;9.620;2024-01-07T02:14:55;59.84;51.16;71.72;;
82857;Laerm;72620;47.774;9.620;2024-01-07T02:17:22;58.25;51.20;68.92;;
82857;Laerm;72620;47.774;9.620;2024-01-07T02:19:49;55.91;51.35;68.22;;
82857;Laerm;72620;47.774;9.620;2024-01-07T02:22:16;60.02;51.59;72.01;;
82857;Laerm;72620;47.774;9.620;2024-01-07T02:24:45;58.07;51.45;68.06;;
82857;Laerm;72620;47.774;9.620;2024-01-07T02:27:13;56.64;50.15;69.37;;
82857;Laerm;72620;47.774;9.620;2024-01-07T02:29:40;52.01;50.10;59.90;;
82857;Laerm;72620;47.774;9.620;2024-01-07T02:32:07;61.26;50.55;71.29;;
82857;Laerm;72620;47.774;9.620;2024-01-07T02:34:34;55.88;51.12;65.17;;
82857;Laerm;72620;47.774;9.620;2024-01-07T02:37:01;58.07;50.61;69.54;;
82857;Laerm;72620;47.774;9.620;2024-01-07T02:39:28;58.19;50.45;67.57;;
82857;Laerm;72620;47.774;9.620;2024-01-07T02:41:55;56.49;50.56;67.87;;
82857;Laerm;72620;47.774;9.620;2024-01-07T02:44:23;58.73;50.34;72.08;;
82857;Laerm;72620;47.774;9.620;2024-01-07T02:46:50;54.68;50.49;65.88;;
82857;Laerm;72620;47.774;9.620;2024-01-07T02:49:17;58.69;50.96;69.51;;
82857;Laerm;72620;47.774;9.620;2024-01-07T02:51:44;61.11;50.90;71.62;;
82857;Laerm;72620;47.774;9.620;2024-01-07T02:54:16;56.87;50.77;69.88;;
82857;Laerm;72620;47.774;9.620;2024-01-07T02:56:43;51.81;50.59;53.98;;
82857;Laerm;72620;47.774;9.620;2024-01-07T02:59:14;51.79;50.52;54.29;;
82857;Laerm;72620;47.774;9.620;2024-01-07T03:01:41;56.99;50.66;68.67;;
82857;Laerm;72620;47.774;9.620;2024-01-07T03:04:12;52.04;50.56;54.79;;
82857;Laerm;72620;47.774;9.620;2024-01-07T03:06:39;52.07;50.63;53.97;;
82857;Laerm;72620;47.774;9.620;2024-01-07T03:09:07;55.31;50.88;67.79;;
82857;Laerm;72620;47.774;9.620;2024-01-07T03:11:39;57.81;50.99;69.41;;
82857;Laerm;72620;47.774;9.620;2024-01-07T03:14:09;57.67;50.99;69.30;;
82857;Laerm;72620;47.774;9.620;2024-01-07T03:16:36;51.96;50.05;64.47;;
82857;Laerm;72620;47.774;9.620;2024-01-07T03:19:03;54.92;50.13;68.30;;
82857;Laerm;72620;47.774;9.620;2024-01-07T03:21:31;55.98;50.13;69.57;;
82857;Laerm;72620;47.774;9.620;2024-01-07T03:23:58;56.49;50.62;68.76;;
82857;Laerm;72620;47.774;9.620;2024-01-07T03:26:30;59.30;50.64;69.87;;
82857;Laerm;72620;47.774;9.620;2024-01-07T03:29:00;58.67;50.68;68.58;;
82857;Laerm;72620;47.774;9.620;2024-01-07T03:31:29;56.14;50.21;69.83;;
82857;Laerm;72620;47.774;9.620;2024-01-07T03:33:56;56.03;50.51;69.78;;
82857;Laerm;72620;47.774;9.620;2024-01-07T03:36:27;58.43;50.50;71.54;;
82857;Laerm;72620;47.774;9.620;2024-01-07T03:38:55;56.35;50.62;69.64;;
82857;Laerm;72620;47.774;9.620;2024-01-07T03:41:22;60.31;51.03;70.72;;
82857;Laerm;72620;47.774;9.620;2024-01-07T03:43:50;54.04;50.84;65.86;;
82857;Laerm;72620;47.774;9.620;2024-01-07T03:46:17;56.63;50.83;71.40;;
82857;Laerm;72620;47.774;9.620;2024-01-07T03:48:44;55.33;50.47;68.68;;
82857;Laerm;72620;47.774;9.620;2024-01-07T03:51:12;53.07;50.58;64.54;;
82857;Laerm;72620;47.774;9.620;2024-01-07T03:53:39;51.86;50.44;53.57;;
82857;Laerm;72620;47.774;9.620;2024-01-07T03:56:07;51.85;50.71;55.48;;
82857;Laerm;72620;47.774;9.620;2024-01-07T03:58:34;51.86;50.66;54.33;;
82857;Laerm;72620;47.774;9.620;2024-01-07T04:01:02;51.81;49.94;55.69;;
82857;Laerm;72620;47.774;9.620;2024-01-07T04:03:32;62.33;49.81;73.18;;
82857;Laerm;72620;47.774;9.620;2024-01-07T04:05:59;57.07;49.87;68.14;;
82857;Laerm;72620;47.774;9.620;2024-01-07T04:08:27;57.36;49.88;69.20;;
82857;Laerm;72620;47.774;9.620;2024-01-07T04:10:55;51.25;49.85;53.70;;
82857;Laerm;72620;47.774;9.620;2024-01-07T04:13:22;56.76;50.14;66.33;;
82857;Laerm;72620;47.774;9.620;2024-01-07T04:15:49;56.13;50.02;70.06;;
82857;Laerm;72620;47.774;9.620;2024-01-07T04:18:16;60.01;49.92;70.49;;
82857;Laerm;72620;47.774;9.620;2024-01-07T04:20:43;51.36;49.91;53.84;;
82857;Laerm;72620;47.774;9.620;2024-01-07T04:23:10;56.19;50.11;66.47;;
82857;Laerm;72620;47.774;9.620;2024-01-07T04:25:38;51.51;50.11;53.53;;
82857;Laerm;72620;47.774;9.620;2024-01-07T04:28:06;54.11;50.18;65.30;;
82857;Laerm;72620;47.774;9.620;2024-01-07T04:30:33;57.57;50.49;70.26;;
82857;Laerm;72620;47.774;9.620;2024-01-07T04:33:01;63.06;50.90;73.09;;
82857;Laerm;72620;47.774;9.620;2024-01-07T04:35:28;60.64;50.82;70.55;;
82857;Laerm;72620;47.774;9.620;2024-01-07T04:37:55;57.57;50.47;69.26;;
82857;Laerm;72620;47.774;9.620;2024-01-07T04:40:22;63.59;50.95;72.88;;
82857;Laerm;72620;47.774;9.620;2024-01-07T04:42:49;59.25;50.58;73.11;;
82857;Laerm;72620;47.774;9.620;2024-01-07T04:45:16;62.60;50.77;73.70;;
82857;Laerm;72620;47.774;9.620;2024-01-07T04:47:43;59.03;50.63;70.87;;
82857;Laerm;72620;47.774;9.620;2024-01-07T04:50:11;56.31;50.72;66.97;;
82857;Laerm;72620;47.774;9.620;2024-01-07T04:52:38;58.58;50.78;69.99;;
82857;Laerm;72620;47.774;9.620;2024-01-07T04:55:05;57.31;50.72;69.41;;
82857;Laerm;72620;47.774;9.620;2024-01-07T04:57:33;55.56;50.25;68.70;;
82857;Laerm;72620;47.774;9.620;2024-01-07T05:00:00;59.97;50.68;70.47;;
82857;Laerm;72620;47.774;9.620;2024-01-07T05:02:27;59.47;50.83;73.65;;
82857;Laerm;72620;47.774;9.620;2024-01-07T05:04:55;57.06;50.55;70.28;;
82857;Laerm;72620;47.774;9.620;2024-01-07T05:07:22;58.64;50.58;72.13;;
82857;Laerm;72620;47.774;9.620;2024-01-07T05:09:49;60.20;50.95;70.32;;
82857;Laerm;72620;47.774;9.620;2024-01-07T05:12:16;58.35;51.10;69.00;;
82857;Laerm;72620;47.774;9.620;2024-01-07T05:14:43;61.67;53.44;72.77;;
82857;Laerm;72620;47.774;9.620;2024-01-07T05:17:10;58.89;53.18;69.55;;
82857;Laerm;72620;47.774;9.620;2024-01-07T05:19:41;59.15;53.07;69.51;;
82857;Laerm;72620;47.774;9.620;2024-01-07T05:22:09;60.04;54.54;69.87;;
82857;Laerm;72620;47.774;9.620;2024-01-07T05:24:37;58.47;52.03;68.58;;
82857;Laerm;72620;47.774;9.620;2024-01-07T05:27:05;52.81;51.58;56.90;;
82857;Laerm;72620;47.774;9.620;2024-01-07T05:29:34;58.65;51.34;70.35;;
82857;Laerm;72620;47.774;9.620;2024-01-07T05:32:05;56.34;51.54;67.23;;
82857;Laerm;72620;47.774;9.620;2024-01-07T05:34:39;52.92;51.83;55.09;;
82857;Laerm;72620;47.774;9.620;2024-01-07T05:37:06;60.00;52.03;70.73;;
82857;Laerm;72620;47.774;9.620;2024-01-07T05:39:33;62.53;51.26;73.27;;
82857;Laerm;72620;47.774;9.620;2024-01-07T05:42:00;52.13;50.65;54.13;;
82857;Laerm;72620;47.774;9.620;2024-01-07T05:44:27;55.77;50.90;69.62;;
82857;Laerm;72620;47.774;9.620;2024-01-07T05:46:55;61.38;51.30;70.06;;
82857;Laerm;72620;47.774;9.620;2024-01-07T05:49:22;60.89;53.48;70.16;;
82857;Laerm;72620;47.774;9.620;2024-01-07T05:51:50;63.65;52.40;71.55;;
82857;Laerm;72620;47.774;9.620;2024-01-07T05:54:17;62.44;51.74;70.40;;
82857;Laerm;72620;47.774;9.620;2024-01-07T05:56:44;58.90;51.40;69.31;;
82857;Laerm;72620;47.774;9.620;2024-01-07T05:59:11;59.82;51.04;70.06;;
82857;Laerm;72620;47.774;9.620;2024-01-07T06:01:39;59.89;50.97;69.38;;
82857;Laerm;72620;47.774;9.620;2024-01-07T06:04:06;59.37;51.17;69.52;;
82857;Laerm;72620;47.774;9.620;2024-01-07T06:06:34;60.28;51.28;70.89;;
82857;Laerm;72620;47.774;9.620;2024-01-07T06:09:01;58.95;51.19;68.40;;
82857;Laerm;72620;47.774;9.620;2024-01-07T06:11:29;62.34;51.35;72.39;;
82857;Laerm;72620;47.774;9.620;2024-01-07T06:13:56;57.09;51.13;68.32;;
82857;Laerm;72620;47.774;9.620;2024-01-07T06:16:24;57.16;50.98;68.00;;
82857;Laerm;72620;47.774;9.620;2024-01-07T06:18:51;59.38;51.37;71.47;;
82857;Laerm;72620;47.774;9.620;2024-01-07T06:21:19;55.21;51.27;67.74;;
82857;Laerm;72620;47.774;9.620;2024-01-07T06:23:46;56.42;51.34;68.44;;
82857;Laerm;72620;47.774;9.620;2024-01-07T06:26:13;61.52;51.29;70.69;;
82857;Laerm;72620;47.774;9.620;2024-01-07T06:28:40;59.85;50.31;69.43;;
82857;Laerm;72620;47.774;9.620;2024-01-07T06:31:06;51.82;50.44;56.56;;
82857;Laerm;72620;47.774;9.620;2024-01-07T06:33:34;62.01;50.73;71.22;;
82857;Laerm;72620;47.774;9.620;2024-01-07T06:36:01;57.80;51.74;68.63;;
82857;Laerm;72620;47.774;9.620;2024-01-07T06:38:28;60.43;51.30;70.94;;
82857;Laerm;72620;47.774;9.620;2024-01-07T06:40:55;62.41;51.25;69.71;;
82857;Laerm;72620;47.774;9.620;2024-01-07T06:43:30;59.72;51.26;69.79;;
82857;Laerm;72620;47.774;9.620;2024-01-07T06:45:57;58.64;50.97;67.57;;
82857;Laerm;72620;47.774;9.620;2024-01-07T06:48:24;59.25;51.04;71.02;;
82857;Laerm;72620;47.774;9.620;2024-01-07T06:50:51;59.73;50.68;70.24;;
82857;Laerm;72620;47.774;9.620;2024-01-07T06:53:18;59.47;50.95;72.15;;
82857;Laerm;72620;47.774;9.620;2024-01-07T06:55:45;58.71;50.80;68.83;;
82857;Laerm;72620;47.774;9.620;2024-01-07T06:58:12;62.12;50.78;73.37;;
82857;Laerm;72620;47.774;9.620;2024-01-07T07:00:39;62.36;51.30;70.03;;
82857;Laerm;72620;47.774;9.620;2024-01-07T07:03:08;62.11;51.19;71.46;;
82857;Laerm;72620;47.774;9.620;2024-01-07T07:05:35;60.39;51.29;72.73;;
82857;Laerm;72620;47.774;9.620;2024-01-07T07:08:02;62.71;51.34;70.85;;
82857;Laerm;72620;47.774;9.620;2024-01-07T07:10:30;55.23;51.09;66.60;;
82857;Laerm;72620;47.774;9.620;2024-01-07T07:12:58;60.01;51.16;68.99;;
82857;Laerm;72620;47.774;9.620;2024-01-07T07:15:25;56.07;51.01;68.76;;
82857;Laerm;72620;47.774;9.620;2024-01-07T07:17:55;63.60;52.05;71.49;;
82857;Laerm;72620;47.774;9.620;2024-01-07T07:20:23;63.78;50.66;75.22;;
82857;Laerm;72620;47.774;9.620;2024-01-07T07:22:50;58.98;50.46;68.77;;
82857;Laerm;72620;47.774;9.620;2024-01-07T07:25:18;61.64;51.29;69.77;;
82857;Laerm;72620;47.774;9.620;2024-01-07T07:27:45;62.45;51.49;71.88;;
82857;Laerm;72620;47.774;9.620;2024-01-07T07:30:12;61.26;51.05;71.08;;
82857;Laerm;72620;47.774;9.620;2024-01-07T07:32:40;64.16;50.94;73.35;;
82857;Laerm;72620;47.774;9.620;2024-01-07T07:35:11;60.02;51.02;70.14;;
82857;Laerm;72620;47.774;9.620;2024-01-07T07:37:38;61.46;51.33;70.85;;
82857;Laerm;72620;47.774;9.620;2024-01-07T07:40:06;61.78;51.20;71.24;;
82857;Laerm;72620;47.774;9.620;2024-01-07T07:42:33;59.76;50.72;70.12;;
82857;Laerm;72620;47.774;9.620;2024-01-07T07:45:00;64.26;51.30;71.62;;
82857;Laerm;72620;47.774;9.620;2024-01-07T07:47:29;60.09;50.92;71.37;;
82857;Laerm;72620;47.774;9.620;2024-01-07T07:49:57;64.08;50.97;71.35;;
82857;Laerm;72620;47.774;9.620;2024-01-07T07:52:24;62.69;50.75;70.74;;
82857;Laerm;72620;47.774;9.620;2024-01-07T07:54:52;61.29;51.23;72.16;;
82857;Laerm;72620;47.774;9.620;2024-01-07T07:57:21;61.32;51.01;70.96;;
82857;Laerm;72620;47.774;9.620;2024-01-07T07:59:48;58.37;50.90;72.51;;
82857;Laerm;72620;47.774;9.620;2024-01-07T08:02:15;62.99;51.37;73.27;;
82857;Laerm;72620;47.774;9.620;2024-01-07T08:04:43;58.18;51.04;71.07;;
82857;Laerm;72620;47.774;9.620;2024-01-07T08:07:11;61.49;51.44;70.88;;
82857;Laerm;72620;47.774;9.620;2024-01-07T08:09:38;62.78;50.99;72.46;;
82857;Laerm;72620;47.774;9.620;2024-01-07T08:12:06;62.29;50.64;70.79;;
82857;Laerm;72620;47.774;9.620;2024-01-07T08:14:33;63.75;50.84;73.58;;
82857;Laerm;72620;47.774;9.620;2024-01-07T08:17:00;64.01;51.27;74.19;;
82857;Laerm;72620;47.774;9.620;2024-01-07T08:19:27;63.58;50.96;71.41;;
82857;Laerm;72620;47.774;9.620;2024-01-07T08:21:55;64.46;50.99;70.78;;
82857;Laerm;72620;47.774;9.620;2024-01-07T08:24:23;63.96;52.08;72.33;;
82857;Laerm;72620;47.774;9.620;2024-01-07T08:26:50;63.87;51.47;71.92;;
82857;Laerm;72620;47.774;9.620;2024-01-07T08:29:18;62.02;50.65;71.13;;
82857;Laerm;72620;47.774;9.620;2024-01-07T08:31:45;64.73;50.47;72.15;;
82857;Laerm;72620;47.774;9.620;2024-01-07T08:34:13;65.49;53.12;71.47;;
82857;Laerm;72620;47.774;9.620;2024-01-07T08:36:42;65.82;53.19;72.49;;
82857;Laerm;72620;47.774;9.620;2024-01-07T08:39:09;61.28;50.86;69.86;;
82857;Laerm;72620;47.774;9.620;2024-01-07T08:41:37;63.43;50.88;75.51;;
82857;Laerm;72620;47.774;9.620;2024-01-07T08:44:04;62.18;51.05;70.95;;
82857;Laerm;72620;47.774;9.620;2024-01-07T08:46:31;65.49;52.67;71.61;;
82857;Laerm;72620;47.774;9.620;2024-01-07T08:48:58;64.66;51.32;72.89;;
82857;Laerm;72620;47.774;9.620;2024-01-07T08:51:25;63.54;50.88;70.93;;
82857;Laerm;72620;47.774;9.620;2024-01-07T08:53:52;66.43;51.11;73.45;;
82857;Laerm;72620;47.774;9.620;2024-01-07T08:56:19;63.24;52.41;69.93;;
82857;Laerm;72620;47.774;9.620;2024-01-07T08:58:46;63.30;50.57;71.53;;
82857;Laerm;72620;47.774;9.620;2024-01-07T09:01:13;63.08;51.07;70.56;;
82857;Laerm;72620;47.774;9.620;2024-01-07T09:03:41;65.91;51.63;73.21;;
82857;Laerm;72620;47.774;9.620;2024-01-07T09:06:09;66.15;52.75;74.52;;
82857;Laerm;72620;47.774;9.620;2024-01-07T09:08:36;65.47;52.60;71.17;;
82857;Laerm;72620;47.774;9.620;2024-01-07T09:11:06;64.13;50.58;71.23;;
82857;Laerm;72620;47.774;9.620;2024-01-07T09:13:34;65.03;51.67;72.46;;
82857;Laerm;72620;47.774;9.620;2024-01-07T09:16:01;65.82;51.27;73.28;;
82857;Laerm;72620;47.774;9.620;2024-01-07T09:18:28;66.87;53.45;73.61;;
82857;Laerm;72620;47.774;9.620;2024-01-07T09:20:55;63.60;51.22;73.45;;
82857;Laerm;72620;47.774;9.620;2024-01-07T09:23:23;65.02;53.52;70.28;;
82857;Laerm;72620;47.774;9.620;2024-01-07T09:25:50;66.99;55.11;73.91;;
82857;Laerm;72620;47.774;9.620;2024-01-07T09:28:17;66.32;54.02;73.04;;
82857;Laerm;72620;47.774;9.620;2024-01-07T09:30:44;67.24;53.84;73.96;;
82857;Laerm;72620;47.774;9.620;2024-01-07T09:33:11;66.45;53.66;76.24;;
82857;Laerm;72620;47.774;9.620;2024-01-07T09:35:39;66.33;56.12;71.56;;
82857;Laerm;72620;47.774;9.620;2024-01-07T09:38:06;66.60;52.48;72.80;;
82857;Laerm;72620;47.774;9.620;2024-01-07T09:40:39;65.52;52.77;71.52;;
82857;Laerm;72620;47.774;9.620;2024-01-07T09:43:06;64.77;52.04;71.97;;
82857;Laerm;72620;47.774;9.620;2024-01-07T09:45:38;67.56;53.55;73.11;;
82857;Laerm;72620;47.774;9.620;2024-01-07T09:48:06;65.88;51.36;74.79;;
82857;Laerm;72620;47.774;9.620;2024-01-07T09:50:34;64.65;51.16;72.72;;
82857;Laerm;72620;47.774;9.620;2024-01-07T09:53:02;66.51;52.16;72.79;;
82857;Laerm;72620;47.774;9.620;2024-01-07T09:56:23;67.13;55.12;72.26;;
82857;Laerm;72620;47.774;9.620;2024-01-07T09:58:51;66.25;53.40;72.18;;
82857;Laerm;72620;47.774;9.620;2024-01-07T10:01:19;65.40;51.80;75.69;;
82857;Laerm;72620;47.774;9.620;2024-01-07T10:03:47;65.41;51.58;71.44;;
82857;Laerm;72620;47.774;9.620;2024-01-07T10:06:18;63.00;51.67;72.76;;
82857;Laerm;72620;47.774;9.620;2024-01-07T10:08:46;66.00;51.71;71.48;;
82857;Laerm;72620;47.774;9.620;2024-01-07T10:11:15;66.49;51.72;73.19;;
82857;Laerm;72620;47.774;9.620;2024-01-07T10:13:45;67.17;54.71;72.78;;
82857;Laerm;72620;47.774;9.620;2024-01-07T10:16:14;64.14;54.29;71.41;;
82857;Laerm;72620;47.774;9.620;2024-01-07T10:18:41;66.70;53.88;72.04;;
82857;Laerm;72620;47.774;9.620;2024-01-07T10:21:09;65.29;52.82;72.93;;
82857;Laerm;72620;47.774;9.620;2024-01-07T10:23:36;65.34;51.66;71.71;;
82857;Laerm;72620;47.774;9.620;2024-01-07T10:26:03;67.71;54.44;73.37;;
82857;Laerm;72620;47.774;9.620;2024-01-07T10:28:45;66.76;53.81;72.60;;
82857;Laerm;72620;47.774;9.620;2024-01-07T10:31:12;64.78;52.48;70.81;;
82857;Laerm;72620;47.774;9.620;2024-01-07T10:33:41;66.26;53.20;73.54;;
82857;Laerm;72620;47.774;9.620;2024-01-07T10:36:09;67.15;51.90;73.67;;
82857;Laerm;72620;47.774;9.620;2024-01-07T10:38:36;66.03;51.85;71.32;;
82857;Laerm;72620;47.774;9.620;2024-01-07T10:41:11;65.93;54.58;72.60;;
82857;Laerm;72620;47.774;9.620;2024-01-07T10:43:39;68.22;54.89;73.23;;
82857;Laerm;72620;47.774;9.620;2024-01-07T10:46:09;66.97;53.37;73.71;;
82857;Laerm;72620;47.774;9.620;2024-01-07T10:48:46;66.93;54.92;73.94;;
82857;Laerm;72620;47.774;9.620;2024-01-07T10:51:21;65.54;54.00;73.15;;
82857;Laerm;72620;47.774;9.620;2024-01-07T10:53:57;67.17;55.42;75.24;;
82857;Laerm;72620;47.774;9.620;2024-01-07T10:56:42;66.25;55.36;73.26;;
82857;Laerm;72620;47.774;9.620;2024-01-07T10:59:12;66.30;54.18;71.77;;
82857;Laerm;72620;47.774;9.620;2024-01-07T11:01:39;67.19;55.08;73.06;;
82857;Laerm;72620;47.774;9.620;2024-01-07T11:04:20;66.48;54.84;72.71;;
82857;Laerm;72620;47.774;9.620;2024-01-07T11:07:23;65.23;54.21;72.47;;
82857;Laerm;72620;47.774;9.620;2024-01-07T11:10:20;66.85;53.19;74.27;;
82857;Laerm;72620;47.774;9.620;2024-01-07T11:13:00;66.40;51.71;74.15;;
82857;Laerm;72620;47.774;9.620;2024-01-07T11:18:19;67.92;54.68;73.97;;
82857;Laerm;72620;47.774;9.620;2024-01-07T11:20:48;67.32;54.81;73.21;;
82857;Laerm;72620;47.774;9.620;2024-01-07T11:23:42;68.60;56.15;75.91;;
82857;Laerm;72620;47.774;9.620;2024-01-07T11:26:09;66.85;55.82;73.90;;
82857;Laerm;72620;47.774;9.620;2024-01-07T11:31:20;67.37;55.76;75.01;;
82857;Laerm;72620;47.774;9.620;2024-01-07T11:33:49;67.95;54.49;72.73;;
82857;Laerm;72620;47.774;9.620;2024-01-07T11:36:18;66.16;54.73;73.23;;
82857;Laerm;72620;47.774;9.620;2024-01-07T11:38:48;66.96;55.13;73.24;;
82857;Laerm;72620;47.774;9.620;2024-01-07T11:41:20;65.73;55.35;71.55;;
82857;Laerm;72620;47.774;9.620;2024-01-07T11:43:57;66.15;54.19;73.76;;
82857;Laerm;72620;47.774;9.620;2024-01-07T11:46:32;68.32;57.14;74.00;;
82857;Laerm;72620;47.774;9.620;2024-01-07T11:49:00;66.03;54.49;71.63;;
82857;Laerm;72620;47.774;9.620;2024-01-07T11:51:29;67.64;55.41;73.92;;
82857;Laerm;72620;47.774;9.620;2024-01-07T11:54:00;64.81;52.60;72.20;;
82857;Laerm;72620;47.774;9.620;2024-01-07T11:56:28;66.88;54.28;73.37;;
82857;Laerm;72620;47.774;9.620;2024-01-07T11:58:55;67.44;53.21;73.28;;
82857;Laerm;72620;47.774;9.620;2024-01-07T12:01:24;64.85;54.38;71.39;;
82857;Laerm;72620;47.774;9.620;2024-01-07T12:03:54;68.72;59.66;75.90;;
82857;Laerm;72620;47.774;9.620;2024-01-07T12:06:21;67.43;55.08;72.40;;
82857;Laerm;72620;47.774;9.620;2024-01-07T12:08:48;67.03;54.55;73.07;;
82857;Laerm;72620;47.774;9.620;2024-01-07T12:11:16;67.34;53.58;72.39;;
82857;Laerm;72620;47.774;9.620;2024-01-07T12:13:44;66.22;53.29;72.34;;
82857;Laerm;72620;47.774;9.620;2024-01-07T12:16:12;66.98;54.13;73.12;;
82857;Laerm;72620;47.774;9.620;2024-01-07T12:18:39;67.34;57.34;74.38;;
82857;Laerm;72620;47.774;9.620;2024-01-07T12:21:07;67.61;56.21;72.68;;
82857;Laerm;72620;47.774;9.620;2024-01-07T12:23:39;68.34;54.01;74.22;;
82857;Laerm;72620;47.774;9.620;2024-01-07T12:26:11;68.30;55.49;73.84;;
82857;Laerm;72620;47.774;9.620;2024-01-07T12:28:39;68.75;55.08;73.31;;
82857;Laerm;72620;47.774;9.620;2024-01-07T12:31:07;65.37;54.85;72.74;;
82857;Laerm;72620;47.774;9.620;2024-01-07T12:33:37;67.62;54.54;73.64;;
82857;Laerm;72620;47.774;9.620;2024-01-07T12:36:06;68.37;54.89;76.03;;
82857;Laerm;72620;47.774;9.620;2024-01-07T12:38:37;66.37;52.70;73.63;;
82857;Laerm;72620;47.774;9.620;2024-01-07T12:41:05;67.76;54.07;74.38;;
82857;Laerm;72620;47.774;9.620;2024-01-07T12:43:33;68.04;54.17;73.09;;
82857;Laerm;72620;47.774;9.620;2024-01-07T12:46:00;67.39;55.84;73.17;;
82857;Laerm;72620;47.774;9.620;2024-01-07T12:48:32;68.24;56.41;73.00;;
82857;Laerm;72620;47.774;9.620;2024-01-07T12:51:00;66.33;53.67;72.40;;
82857;Laerm;72620;47.774;9.620;2024-01-07T12:53:28;67.99;53.99;72.72;;
82857;Laerm;72620;47.774;9.620;2024-01-07T12:55:55;67.68;55.97;72.37;;
82857;Laerm;72620;47.774;9.620;2024-01-07T12:58:22;67.62;53.70;73.81;;
82857;Laerm;72620;47.774;9.620;2024-01-07T13:00:50;68.49;54.81;73.59;;
82857;Laerm;72620;47.774;9.620;2024-01-07T13:03:18;69.23;60.19;74.15;;
82857;Laerm;72620;47.774;9.620;2024-01-07T13:05:47;66.78;54.89;74.02;;
82857;Laerm;72620;47.774;9.620;2024-01-07T13:08:17;68.55;59.59;73.19;;
82857;Laerm;72620;47.774;9.620;2024-01-07T13:10:50;68.81;58.29;72.98;;
82857;Laerm;72620;47.774;9.620;2024-01-07T13:13:17;66.24;53.90;73.61;;
82857;Laerm;72620;47.774;9.620;2024-01-07T13:15:44;68.82;55.17;77.13;;
82857;Laerm;72620;47.774;9.620;2024-01-07T13:18:13;68.40;52.44;74.96;;
82857;Laerm;72620;47.774;9.620;2024-01-07T13:20:47;68.01;55.24;72.86;;
82857;Laerm;72620;47.774;9.620;2024-01-07T13:23:14;68.23;54.21;73.45;;
82857;Laerm;72620;47.774;9.620;2024-01-07T13:25:42;68.15;56.42;75.47;;
82857;Laerm;72620;47.774;9.620;2024-01-07T13:28:09;68.39;55.15;74.37;;
82857;Laerm;72620;47.774;9.620;2024-01-07T13:30:38;68.88;59.39;73.68;;
82857;Laerm;72620;47.774;9.620;2024-01-07T13:33:07;67.98;55.39;75.17;;
82857;Laerm;72620;47.774;9.620;2024-01-07T13:35:35;68.31;55.70;73.73;;
82857;Laerm;72620;47.774;9.620;2024-01-07T13:38:02;67.62;55.48;73.64;;
82857;Laerm;72620;47.774;9.620;2024-01-07T13:40:30;67.70;54.43;72.68;;
82857;Laerm;72620;47.774;9.620;2024-01-07T13:42:58;66.40;54.64;72.97;;
82857;Laerm;72620;47.774;9.620;2024-01-07T13:45:25;67.69;54.41;73.56;;
82857;Laerm;72620;47.774;9.620;2024-01-07T13:47:52;66.70;55.94;71.78;;
82857;Laerm;72620;47.774;9.620;2024-01-07T13:50:22;67.45;55.51;72.97;;
82857;Laerm;72620;47.774;9.620;2024-01-07T13:52:49;67.24;55.86;73.05;;
82857;Laerm;72620;47.774;9.620;2024-01-07T13:55:17;66.90;54.44;72.75;;
82857;Laerm;72620;47.774;9.620;2024-01-07T13:57:45;68.28;55.05;74.46;;